Time,TemperatureF,DewpointF,PressureIn,WindDirection,WindDirectionDegrees,WindSpeedMPH,WindSpeedGustMPH,Humidity,HourlyPrecipIn,Conditions,Clouds,dailyrainin,SolarRadiationWatts/m^2,SoftwareType,DateUTC
2013-03-31 00:00:00,34.0,33.0,-100.00,SSW,213,3.0,6.0,97,0.00,,,0.34,0.000000,,2013-03-31 05:00:00,
2013-03-31 00:22:00,34.0,33.0,-100.00,SSW,213,3.0,6.0,97,0.00,,,0.34,0.000000,,2013-03-31 05:22:00,
2013-03-31 00:32:00,34.0,33.0,-100.00,SSW,213,3.0,6.0,97,0.00,,,0.34,0.000000,,2013-03-31 05:32:00,
2013-03-31 00:42:00,34.0,33.0,-100.00,SSW,213,3.0,6.0,97,0.00,,,0.34,0.000000,,2013-03-31 05:42:00,
2013-03-31 00:53:00,34.0,33.0,-100.00,SSW,213,3.0,6.0,97,0.00,,,0.34,0.000000,,2013-03-31 05:53:00,
2013-03-31 01:00:00,33.0,32.0,-100.00,WSW,247,3.0,6.0,97,0.00,,,0.34,0.000000,,2013-03-31 06:00:00,
2013-03-31 01:33:00,33.0,32.0,-100.00,WSW,247,3.0,6.0,97,0.00,,,0.34,0.000000,,2013-03-31 06:33:00,
2013-03-31 01:42:00,33.0,32.0,-100.00,WSW,247,3.0,6.0,97,0.00,,,0.34,0.000000,,2013-03-31 06:42:00,
2013-03-31 01:52:00,33.0,32.0,-100.00,WSW,247,3.0,6.0,97,0.00,,,0.34,0.000000,,2013-03-31 06:52:00,
2013-03-31 02:00:00,32.0,31.0,-100.00,WSW,244,3.0,5.0,97,0.00,,,0.34,0.000000,,2013-03-31 07:00:00,
2013-03-31 02:33:00,32.0,31.0,-100.00,WSW,244,3.0,5.0,97,0.00,,,0.34,0.000000,,2013-03-31 07:33:00,
2013-03-31 02:43:00,32.0,31.0,-100.00,WSW,244,3.0,5.0,97,0.00,,,0.34,0.000000,,2013-03-31 07:43:00,
2013-03-31 02:53:00,32.0,31.0,-100.00,WSW,244,3.0,5.0,97,0.00,,,0.34,0.000000,,2013-03-31 07:53:00,
2013-03-31 03:00:00,31.0,30.0,-100.00,WSW,242,3.0,6.0,97,0.00,,,0.34,0.000000,,2013-03-31 08:00:00,
2013-03-31 03:22:00,31.0,30.0,-100.00,WSW,242,3.0,6.0,97,0.00,,,0.34,0.000000,,2013-03-31 08:22:00,
2013-03-31 03:32:00,31.0,30.0,-100.00,WSW,242,3.0,6.0,97,0.00,,,0.34,0.000000,,2013-03-31 08:32:00,
2013-03-31 03:42:00,31.0,30.0,-100.00,WSW,242,3.0,6.0,97,0.00,,,0.34,0.000000,,2013-03-31 08:42:00,
2013-03-31 03:52:00,31.0,30.0,-100.00,WSW,242,3.0,6.0,97,0.00,,,0.34,0.000000,,2013-03-31 08:52:00,
2013-03-31 04:00:00,31.0,30.0,-100.00,WSW,250,0.0,5.0,97,0.00,,,0.34,0.000000,,2013-03-31 09:00:00,
2013-03-31 04:33:00,31.0,30.0,-100.00,WSW,250,0.0,5.0,97,0.00,,,0.34,0.000000,,2013-03-31 09:33:00,
2013-03-31 04:43:00,31.0,30.0,-100.00,WSW,250,0.0,5.0,97,0.00,,,0.34,0.000000,,2013-03-31 09:43:00,
2013-03-31 04:53:00,31.0,30.0,-100.00,WSW,250,0.0,5.0,97,0.00,,,0.34,0.000000,,2013-03-31 09:53:00,
2013-03-31 05:00:00,30.0,28.0,-100.00,WSW,254,0.0,0.0,93,0.00,,,0.22,0.000000,,2013-03-31 10:00:00,
2013-03-31 05:33:00,30.0,28.0,-100.00,WSW,254,0.0,0.0,93,0.00,,,0.22,0.000000,,2013-03-31 10:33:00,
2013-03-31 05:42:00,30.0,28.0,-100.00,WSW,254,0.0,0.0,93,0.00,,,0.22,0.000000,,2013-03-31 10:42:00,
2013-03-31 05:53:00,30.0,28.0,-100.00,WSW,254,0.0,0.0,93,0.00,,,0.22,0.000000,,2013-03-31 10:53:00,
2013-03-31 06:00:00,31.0,28.0,-100.00,West,280,0.0,0.0,89,0.00,,,0.13,0.000000,,2013-03-31 11:00:00,
2013-03-31 06:33:00,31.0,28.0,-100.00,West,280,0.0,0.0,89,0.00,,,0.13,0.000000,,2013-03-31 11:33:00,
2013-03-31 06:42:00,31.0,28.0,-100.00,West,280,0.0,0.0,89,0.00,,,0.13,0.000000,,2013-03-31 11:42:00,
2013-03-31 06:53:00,31.0,28.0,-100.00,West,280,0.0,0.0,89,0.00,,,0.13,0.000000,,2013-03-31 11:53:00,
2013-03-31 07:00:00,31.0,29.0,-100.00,WSW,251,0.0,4.0,93,0.00,,,0.11,2.000000,,2013-03-31 12:00:00,
2013-03-31 07:22:00,31.0,29.0,-100.00,WSW,251,0.0,4.0,93,0.00,,,0.11,2.000000,,2013-03-31 12:22:00,
2013-03-31 07:33:00,31.0,29.0,-100.00,WSW,251,0.0,4.0,93,0.00,,,0.11,2.000000,,2013-03-31 12:33:00,
2013-03-31 07:42:00,31.0,29.0,-100.00,WSW,251,0.0,4.0,93,0.00,,,0.11,2.000000,,2013-03-31 12:42:00,
2013-03-31 07:53:00,31.0,29.0,-100.00,WSW,251,0.0,4.0,93,0.00,,,0.11,2.000000,,2013-03-31 12:53:00,
2013-03-31 08:00:00,32.0,29.0,-100.00,WSW,250,0.0,0.0,89,0.00,,,0.10,66.000000,,2013-03-31 13:00:00,
2013-03-31 08:32:00,32.0,29.0,-100.00,WSW,250,0.0,0.0,89,0.00,,,0.10,66.000000,,2013-03-31 13:32:00,
2013-03-31 08:42:00,32.0,29.0,-100.00,WSW,250,0.0,0.0,89,0.00,,,0.10,66.000000,,2013-03-31 13:42:00,
2013-03-31 08:53:00,32.0,29.0,-100.00,WSW,250,0.0,0.0,89,0.00,,,0.10,66.000000,,2013-03-31 13:53:00,
2013-03-31 09:00:00,33.0,30.0,-100.00,West,267,0.0,12.0,87,0.01,,,0.08,159.000000,,2013-03-31 14:00:00,
2013-03-31 09:23:00,33.0,30.0,-100.00,West,267,0.0,12.0,87,0.01,,,0.08,159.000000,,2013-03-31 14:23:00,
2013-03-31 09:33:00,33.0,30.0,-100.00,West,267,0.0,12.0,87,0.01,,,0.08,159.000000,,2013-03-31 14:33:00,
2013-03-31 09:43:00,33.0,30.0,-100.00,West,267,0.0,12.0,87,0.01,,,0.08,159.000000,,2013-03-31 14:43:00,
2013-03-31 09:52:00,33.0,30.0,-100.00,West,267,0.0,12.0,87,0.01,,,0.08,159.000000,,2013-03-31 14:52:00,
2013-03-31 10:00:00,32.0,29.0,-100.00,WNW,282,3.0,15.0,87,0.00,,,0.05,102.000000,,2013-03-31 15:00:00,
2013-03-31 10:34:00,32.0,29.0,-100.00,WNW,282,3.0,15.0,87,0.00,,,0.05,102.000000,,2013-03-31 15:34:00,
2013-03-31 10:43:00,32.0,29.0,-100.00,WNW,282,3.0,15.0,87,0.00,,,0.05,102.000000,,2013-03-31 15:43:00,
2013-03-31 10:54:00,32.0,29.0,-100.00,WNW,282,3.0,15.0,87,0.00,,,0.05,102.000000,,2013-03-31 15:54:00,
2013-03-31 11:00:00,35.0,31.0,-100.00,WNW,293,6.0,15.0,84,0.02,,,0.04,223.000000,,2013-03-31 16:00:00,
2013-03-31 11:34:00,35.0,31.0,-100.00,WNW,293,6.0,15.0,84,0.02,,,0.04,223.000000,,2013-03-31 16:34:00,
2013-03-31 11:43:00,35.0,31.0,-100.00,WNW,293,6.0,15.0,84,0.02,,,0.04,223.000000,,2013-03-31 16:43:00,
2013-03-31 11:53:00,35.0,31.0,-100.00,WNW,293,6.0,15.0,84,0.02,,,0.04,223.000000,,2013-03-31 16:53:00,
2013-03-31 12:00:00,33.0,28.0,-100.00,NW,304,5.0,23.0,82,0.00,,,0.03,435.000000,,2013-03-31 17:00:00,
2013-03-31 12:33:00,33.0,28.0,-100.00,NW,304,5.0,23.0,82,0.00,,,0.03,435.000000,,2013-03-31 17:33:00,
2013-03-31 12:43:00,33.0,28.0,-100.00,NW,304,5.0,23.0,82,0.00,,,0.03,435.000000,,2013-03-31 17:43:00,
2013-03-31 12:52:00,33.0,28.0,-100.00,NW,304,5.0,23.0,82,0.00,,,0.03,435.000000,,2013-03-31 17:52:00,
2013-03-31 13:00:00,34.0,22.0,-100.00,WNW,294,12.0,22.0,61,0.00,,,0.03,630.000000,,2013-03-31 18:00:00,
2013-03-31 13:33:00,34.0,22.0,-100.00,WNW,294,12.0,22.0,61,0.00,,,0.03,630.000000,,2013-03-31 18:33:00,
2013-03-31 13:42:00,34.0,22.0,-100.00,WNW,294,12.0,22.0,61,0.00,,,0.03,630.000000,,2013-03-31 18:42:00,
2013-03-31 13:53:00,34.0,22.0,-100.00,WNW,294,12.0,22.0,61,0.00,,,0.03,630.000000,,2013-03-31 18:53:00,
2013-03-31 14:00:00,34.0,16.0,-100.00,NW,316,11.0,24.0,47,0.00,,,0.03,567.000000,,2013-03-31 19:00:00,
2013-03-31 14:33:00,34.0,16.0,-100.00,NW,316,11.0,24.0,47,0.00,,,0.03,567.000000,,2013-03-31 19:33:00,
2013-03-31 14:43:00,34.0,16.0,-100.00,NW,316,11.0,24.0,47,0.00,,,0.03,567.000000,,2013-03-31 19:43:00,
2013-03-31 14:54:00,34.0,16.0,-100.00,NW,316,11.0,24.0,47,0.00,,,0.03,567.000000,,2013-03-31 19:54:00,
2013-03-31 15:00:00,34.0,13.0,-100.00,WNW,298,12.0,26.0,42,0.00,,,0.03,613.000000,,2013-03-31 20:00:00,
2013-03-31 15:34:00,34.0,13.0,-100.00,WNW,298,12.0,26.0,42,0.00,,,0.03,613.000000,,2013-03-31 20:34:00,
2013-03-31 15:43:00,34.0,13.0,-100.00,WNW,298,12.0,26.0,42,0.00,,,0.03,613.000000,,2013-03-31 20:43:00,
2013-03-31 15:53:00,34.0,13.0,-100.00,WNW,298,12.0,26.0,42,0.00,,,0.03,613.000000,,2013-03-31 20:53:00,
2013-03-31 16:00:00,32.0,15.0,-100.00,WNW,297,9.0,25.0,48,0.00,,,0.03,390.000000,,2013-03-31 21:00:00,
2013-03-31 16:34:00,32.0,15.0,-100.00,WNW,297,9.0,25.0,48,0.00,,,0.03,390.000000,,2013-03-31 21:34:00,
2013-03-31 16:43:00,32.0,15.0,-100.00,WNW,297,9.0,25.0,48,0.00,,,0.03,390.000000,,2013-03-31 21:43:00,
2013-03-31 16:54:00,32.0,15.0,-100.00,WNW,297,9.0,25.0,48,0.00,,,0.03,390.000000,,2013-03-31 21:54:00,
2013-03-31 17:00:00,31.0,10.0,-100.00,NW,315,10.0,22.0,40,0.00,,,0.03,230.000000,,2013-03-31 22:00:00,
2013-03-31 17:24:00,31.0,10.0,-100.00,NW,315,10.0,22.0,40,0.00,,,0.03,230.000000,,2013-03-31 22:24:00,
2013-03-31 17:33:00,31.0,10.0,-100.00,NW,315,10.0,22.0,40,0.00,,,0.03,230.000000,,2013-03-31 22:33:00,
2013-03-31 17:43:00,31.0,10.0,-100.00,NW,315,10.0,22.0,40,0.00,,,0.03,230.000000,,2013-03-31 22:43:00,
2013-03-31 17:53:00,31.0,10.0,-100.00,NW,315,10.0,22.0,40,0.00,,,0.03,230.000000,,2013-03-31 22:53:00,
2013-03-31 18:00:00,31.0,10.0,-100.00,NW,315,10.0,23.0,41,0.00,,,0.03,257.000000,,2013-03-31 23:00:00,
2013-03-31 18:33:00,31.0,10.0,-100.00,NW,315,10.0,23.0,41,0.00,,,0.03,257.000000,,2013-03-31 23:33:00,
2013-03-31 18:43:00,31.0,10.0,-100.00,NW,315,10.0,23.0,41,0.00,,,0.03,257.000000,,2013-03-31 23:43:00,
2013-03-31 18:53:00,31.0,10.0,-100.00,NW,315,10.0,23.0,41,0.00,,,0.03,257.000000,,2013-03-31 23:53:00,
2013-03-31 19:00:00,28.0,11.0,-100.00,NW,324,0.0,23.0,48,0.00,,,0.03,97.000000,,2013-04-01 00:00:00,
2013-03-31 19:23:00,28.0,11.0,-100.00,NW,324,0.0,23.0,48,0.00,,,0.03,97.000000,,2013-04-01 00:23:00,
2013-03-31 19:33:00,28.0,11.0,-100.00,NW,324,0.0,23.0,48,0.00,,,0.03,97.000000,,2013-04-01 00:33:00,
2013-03-31 19:43:00,28.0,11.0,-100.00,NW,324,0.0,23.0,48,0.00,,,0.03,97.000000,,2013-04-01 00:43:00,
2013-03-31 19:53:00,28.0,11.0,-100.00,NW,324,0.0,23.0,48,0.00,,,0.03,97.000000,,2013-04-01 00:53:00,
2013-03-31 20:00:00,26.0,9.0,-100.00,NW,317,0.0,14.0,49,0.00,,,0.03,7.000000,,2013-04-01 01:00:00,
2013-03-31 20:33:00,26.0,9.0,-100.00,NW,317,0.0,14.0,49,0.00,,,0.03,7.000000,,2013-04-01 01:33:00,
2013-03-31 20:43:00,26.0,9.0,-100.00,NW,317,0.0,14.0,49,0.00,,,0.03,7.000000,,2013-04-01 01:43:00,
2013-03-31 20:53:00,26.0,9.0,-100.00,NW,317,0.0,14.0,49,0.00,,,0.03,7.000000,,2013-04-01 01:53:00,
2013-03-31 21:00:00,25.0,8.0,-100.00,NW,321,0.0,4.0,47,0.00,,,0.03,0.000000,,2013-04-01 02:00:00,
2013-03-31 21:33:00,25.0,8.0,-100.00,NW,321,0.0,4.0,47,0.00,,,0.03,0.000000,,2013-04-01 02:33:00,
2013-03-31 21:43:00,25.0,8.0,-100.00,NW,321,0.0,4.0,47,0.00,,,0.03,0.000000,,2013-04-01 02:43:00,
2013-03-31 21:53:00,25.0,8.0,-100.00,NW,321,0.0,4.0,47,0.00,,,0.03,0.000000,,2013-04-01 02:53:00,
2013-03-31 22:00:00,24.0,8.0,-100.00,NW,312,0.0,2.0,50,0.00,,,0.03,0.000000,,2013-04-01 03:00:00,
2013-03-31 22:35:00,24.0,8.0,-100.00,NW,312,0.0,2.0,50,0.00,,,0.03,0.000000,,2013-04-01 03:35:00,
2013-03-31 22:43:00,24.0,8.0,-100.00,NW,312,0.0,2.0,50,0.00,,,0.03,0.000000,,2013-04-01 03:43:00,
2013-03-31 22:53:00,24.0,8.0,-100.00,NW,312,0.0,2.0,50,0.00,,,0.03,0.000000,,2013-04-01 03:53:00,
2013-03-31 23:00:00,22.0,7.0,-100.00,NW,320,0.0,1.0,51,0.00,,,0.03,0.000000,,2013-04-01 04:00:00,
2013-03-31 23:33:00,22.0,7.0,-100.00,NW,320,0.0,1.0,51,0.00,,,0.03,0.000000,,2013-04-01 04:33:00,
2013-03-31 23:43:00,22.0,7.0,-100.00,NW,320,0.0,1.0,51,0.00,,,0.03,0.000000,,2013-04-01 04:43:00,
2013-03-31 23:53:00,22.0,7.0,-100.00,NW,320,0.0,1.0,51,0.00,,,0.03,0.000000,,2013-04-01 04:53:00,